Little Valley, Nevada Weather observations

Data are for 10 minute period ending at time listed.
 Day   Time    Ave.   Ave.  Ave.  Vector   Max.   Total    Solar   
  of    of     Air    Rel.  Wind   Wind    Wind  Precip.   Rad.    
Year   Day     Temp.  Hum.  Speed  Dir.    Gust                    
2014   (PST)    F      %     mph   deg.    mph     in.     W/m2    
------------------------------------------------------------------- 
 293    8:00   53.0    42   10.0   260     20.0   17.62      25  
 293    9:00   55.0    46    9.0   262     25.0   17.62     287  
 293   10:00   56.0    46    9.0   235     21.0   17.62     502  
 293   11:00   58.0    45    8.0   247     24.0   17.62     623  
 293   12:00   60.0    34    9.0   183     25.0   17.62     699  
 293   13:00   59.0    40   10.0   296     27.0   17.62     721  
 293   14:00   57.0    48    8.0   250     35.0   17.62     644  
 293   15:00   56.0    51   10.0   230     32.0   17.62     476  
 293   16:00   56.0    49    7.0   215     28.0   17.62     340  
 293   17:00   51.0    59    9.0   275     29.0   17.62      84  
 293   18:00   50.0    64   11.0   258     32.0   17.62      11  
 293   19:00   49.0    50   12.0   247     43.0   17.62       0  
 293   20:00   49.0    51   15.0   191     45.0   17.62       0  
 293   21:00   42.0    85    6.0   199     36.0   17.65       0  
 293   22:00   40.0    85   15.0   270     30.0   17.67       0  
 293   23:00   40.0    81   11.0   247     32.0   17.68       0  
 294    0:00   39.0    70   11.0   251     40.0   17.68       0  
 294    1:00   37.0    66   13.0   258     32.0   17.69       0  
 294    2:00   37.0    70   13.0   267     30.0   17.69       0  
 294    3:00   37.0    64   13.0   269     25.0   17.69       0  
 294    4:00   37.0    52   11.0   270     25.0   17.69       0  
 294    5:00   38.0    47   10.0   268     26.0   17.70       0  
 294    6:00   39.0    43    6.0   268     17.0   17.70       0  
 294    7:00   35.0    55    3.0   236     12.0   17.70       3  

Return to Little Valley, Nevada graphs page.


Western Regional Climate Center,wrcc@dri.edu